sensor_id;sensor_type;location;lat;lon;timestamp;pressure;altitude;pressure_sealevel;temperature;humidity
29941;BME280;16801;53.562;10.038;2024-01-30T00:01:01;102708.16;;;5.94;100.00
29941;BME280;16801;53.562;10.038;2024-01-30T00:04:22;102715.59;;;5.86;100.00
29941;BME280;16801;53.562;10.038;2024-01-30T00:07:43;102714.78;;;5.84;100.00
29941;BME280;16801;53.562;10.038;2024-01-30T00:11:04;102720.91;;;5.88;100.00
29941;BME280;16801;53.562;10.038;2024-01-30T00:14:26;102722.19;;;5.78;100.00
29941;BME280;16801;53.562;10.038;2024-01-30T00:17:47;102708.72;;;5.79;100.00
29941;BME280;16801;53.562;10.038;2024-01-30T00:21:08;102708.16;;;5.71;100.00
29941;BME280;16801;53.562;10.038;2024-01-30T00:24:29;102708.41;;;5.88;100.00
29941;BME280;16801;53.562;10.038;2024-01-30T00:27:50;102704.47;;;5.97;100.00
29941;BME280;16801;53.562;10.038;2024-01-30T00:31:13;102701.13;;;5.92;100.00
29941;BME280;16801;53.562;10.038;2024-01-30T00:34:34;102691.06;;;5.75;100.00
29941;BME280;16801;53.562;10.038;2024-01-30T00:37:55;102684.78;;;5.53;100.00
29941;BME280;16801;53.562;10.038;2024-01-30T00:41:17;102689.31;;;5.51;100.00
29941;BME280;16801;53.562;10.038;2024-01-30T00:44:39;102691.09;;;5.52;100.00
29941;BME280;16801;53.562;10.038;2024-01-30T00:48:01;102692.22;;;5.68;100.00
29941;BME280;16801;53.562;10.038;2024-01-30T00:51:22;102684.78;;;5.53;100.00
29941;BME280;16801;53.562;10.038;2024-01-30T00:54:43;102687.25;;;5.59;100.00
29941;BME280;16801;53.562;10.038;2024-01-30T00:58:04;102685.94;;;5.69;100.00
29941;BME280;16801;53.562;10.038;2024-01-30T01:01:25;102692.53;;;5.60;100.00
29941;BME280;16801;53.562;10.038;2024-01-30T01:04:47;102679.78;;;5.67;100.00
29941;BME280;16801;53.562;10.038;2024-01-30T01:08:08;102685.94;;;5.69;100.00
29941;BME280;16801;53.562;10.038;2024-01-30T01:11:29;102691.66;;;5.60;100.00
29941;BME280;16801;53.562;10.038;2024-01-30T01:14:49;102699.19;;;5.72;100.00
29941;BME280;16801;53.562;10.038;2024-01-30T01:18:10;102696.09;;;5.83;100.00
29941;BME280;16801;53.562;10.038;2024-01-30T01:21:32;102699.31;;;5.69;100.00
29941;BME280;16801;53.562;10.038;2024-01-30T01:24:53;102701.69;;;5.77;100.00
29941;BME280;16801;53.562;10.038;2024-01-30T01:28:14;102701.44;;;5.83;100.00
29941;BME280;16801;53.562;10.038;2024-01-30T01:31:36;102708.25;;;5.91;100.00
29941;BME280;16801;53.562;10.038;2024-01-30T01:34:59;102700.22;;;5.91;100.00
29941;BME280;16801;53.562;10.038;2024-01-30T01:38:22;102693.19;;;5.89;100.00
29941;BME280;16801;53.562;10.038;2024-01-30T01:41:42;102687.72;;;5.92;100.00
29941;BME280;16801;53.562;10.038;2024-01-30T01:45:04;102696.97;;;5.83;100.00
29941;BME280;16801;53.562;10.038;2024-01-30T01:48:25;102686.63;;;5.74;100.00
29941;BME280;16801;53.562;10.038;2024-01-30T01:51:48;102679.22;;;5.81;100.00
29941;BME280;16801;53.562;10.038;2024-01-30T01:55:10;102679.16;;;5.82;100.00
29941;BME280;16801;53.562;10.038;2024-01-30T01:58:32;102679.47;;;5.75;100.00
29941;BME280;16801;53.562;10.038;2024-01-30T02:01:55;102679.28;;;5.79;100.00
29941;BME280;16801;53.562;10.038;2024-01-30T02:05:16;102676.31;;;5.65;100.00
29941;BME280;16801;53.562;10.038;2024-01-30T02:08:37;102674.09;;;5.53;100.00
29941;BME280;16801;53.562;10.038;2024-01-30T02:12:00;102662.31;;;5.57;100.00
29941;BME280;16801;53.562;10.038;2024-01-30T02:15:21;102652.78;;;5.73;100.00
29941;BME280;16801;53.562;10.038;2024-01-30T02:18:42;102651.78;;;5.54;100.00
29941;BME280;16801;53.562;10.038;2024-01-30T02:22:07;102642.88;;;5.53;100.00
29941;BME280;16801;53.562;10.038;2024-01-30T02:25:41;102637.53;;;5.53;100.00
29941;BME280;16801;53.562;10.038;2024-01-30T02:29:04;102634.16;;;5.70;100.00
29941;BME280;16801;53.562;10.038;2024-01-30T02:32:24;102639.28;;;5.54;100.00
29941;BME280;16801;53.562;10.038;2024-01-30T02:35:45;102623.97;;;5.58;100.00
29941;BME280;16801;53.562;10.038;2024-01-30T02:39:08;102627.00;;;5.49;100.00
29941;BME280;16801;53.562;10.038;2024-01-30T02:42:29;102635.91;;;5.49;100.00
29941;BME280;16801;53.562;10.038;2024-01-30T02:45:50;102635.56;;;5.57;100.00
29941;BME280;16801;53.562;10.038;2024-01-30T02:49:11;102621.91;;;5.64;100.00
29941;BME280;16801;53.562;10.038;2024-01-30T02:52:32;102619.00;;;5.71;100.00
29941;BME280;16801;53.562;10.038;2024-01-30T02:55:54;102623.09;;;5.79;100.00
29941;BME280;16801;53.562;10.038;2024-01-30T02:59:15;102618.88;;;5.52;100.00
29941;BME280;16801;53.562;10.038;2024-01-30T03:02:36;102624.94;;;5.34;100.00
29941;BME280;16801;53.562;10.038;2024-01-30T03:05:57;102620.66;;;5.30;100.00
29941;BME280;16801;53.562;10.038;2024-01-30T03:09:18;102622.94;;;5.39;100.00
29941;BME280;16801;53.562;10.038;2024-01-30T03:12:40;102620.81;;;5.48;100.00
29941;BME280;16801;53.562;10.038;2024-01-30T03:16:01;102617.75;;;5.36;100.00
29941;BME280;16801;53.562;10.038;2024-01-30T03:19:22;102611.78;;;5.28;100.00
29941;BME280;16801;53.562;10.038;2024-01-30T03:22:43;102603.44;;;5.14;100.00
29941;BME280;16801;53.562;10.038;2024-01-30T03:26:04;102606.66;;;5.23;100.00
29941;BME280;16801;53.562;10.038;2024-01-30T03:29:27;102598.63;;;5.23;100.00
29941;BME280;16801;53.562;10.038;2024-01-30T03:32:48;102608.28;;;5.27;100.00
29941;BME280;16801;53.562;10.038;2024-01-30T03:36:10;102597.81;;;5.21;100.00
29941;BME280;16801;53.562;10.038;2024-01-30T03:39:31;102607.09;;;5.34;100.00
29941;BME280;16801;53.562;10.038;2024-01-30T03:42:52;102608.53;;;5.20;100.00
29941;BME280;16801;53.562;10.038;2024-01-30T03:46:15;102595.31;;;5.17;100.00
29941;BME280;16801;53.562;10.038;2024-01-30T03:49:36;102603.09;;;5.23;100.00
29941;BME280;16801;53.562;10.038;2024-01-30T03:52:57;102594.53;;;5.13;100.00
29941;BME280;16801;53.562;10.038;2024-01-30T03:56:18;102591.78;;;5.16;100.00
29941;BME280;16801;53.562;10.038;2024-01-30T03:59:41;102574.47;;;5.03;100.00
29941;BME280;16801;53.562;10.038;2024-01-30T04:03:04;102574.22;;;4.86;100.00
29941;BME280;16801;53.562;10.038;2024-01-30T04:06:26;102575.34;;;4.80;100.00
29941;BME280;16801;53.562;10.038;2024-01-30T04:09:47;102588.22;;;4.93;100.00
29941;BME280;16801;53.562;10.038;2024-01-30T04:13:08;102585.38;;;4.97;100.00
29941;BME280;16801;53.562;10.038;2024-01-30T04:16:29;102581.41;;;4.85;100.00
29941;BME280;16801;53.562;10.038;2024-01-30T04:19:51;102579.47;;;4.89;100.00
29941;BME280;16801;53.562;10.038;2024-01-30T04:23:12;102585.16;;;5.03;100.00
29941;BME280;16801;53.562;10.038;2024-01-30T04:26:32;102590.72;;;4.97;100.00
29941;BME280;16801;53.562;10.038;2024-01-30T04:29:54;102589.97;;;4.94;100.00
29941;BME280;16801;53.562;10.038;2024-01-30T04:33:14;102585.69;;;4.90;100.00
29941;BME280;16801;53.562;10.038;2024-01-30T04:36:39;102593.47;;;4.96;100.00
29941;BME280;16801;53.562;10.038;2024-01-30T04:40:00;102591.25;;;4.83;100.00
29941;BME280;16801;53.562;10.038;2024-01-30T04:43:20;102598.63;;;4.77;100.00
29941;BME280;16801;53.562;10.038;2024-01-30T04:46:42;102594.34;;;4.73;100.00
29941;BME280;16801;53.562;10.038;2024-01-30T04:50:03;102596.53;;;4.85;100.00
29941;BME280;16801;53.562;10.038;2024-01-30T04:53:26;102594.03;;;4.80;100.00
29941;BME280;16801;53.562;10.038;2024-01-30T04:56:47;102591.94;;;4.88;100.00
29941;BME280;16801;53.562;10.038;2024-01-30T05:00:09;102592.47;;;4.75;100.00
29941;BME280;16801;53.562;10.038;2024-01-30T05:03:33;102594.53;;;4.92;100.00
29941;BME280;16801;53.562;10.038;2024-01-30T05:06:54;102596.03;;;4.75;100.00
29941;BME280;16801;53.562;10.038;2024-01-30T05:10:16;102595.31;;;4.94;100.00
29941;BME280;16801;53.562;10.038;2024-01-30T05:13:37;102595.16;;;4.75;100.00
29941;BME280;16801;53.562;10.038;2024-01-30T05:16:58;102591.31;;;4.82;100.00
29941;BME280;16801;53.562;10.038;2024-01-30T05:20:19;102583.91;;;4.65;100.00
29941;BME280;16801;53.562;10.038;2024-01-30T05:23:42;102579.06;;;4.76;100.00
29941;BME280;16801;53.562;10.038;2024-01-30T05:27:06;102598.72;;;4.74;100.00
29941;BME280;16801;53.562;10.038;2024-01-30T05:30:27;102592.47;;;4.75;100.00
29941;BME280;16801;53.562;10.038;2024-01-30T05:33:48;102589.81;;;4.98;100.00
29941;BME280;16801;53.562;10.038;2024-01-30T05:37:10;102590.91;;;4.93;100.00
29941;BME280;16801;53.562;10.038;2024-01-30T05:40:34;102585.38;;;4.97;100.00
29941;BME280;16801;53.562;10.038;2024-01-30T05:43:56;102585.75;;;4.88;100.00
29941;BME280;16801;53.562;10.038;2024-01-30T05:47:17;102580.63;;;5.05;100.00
29941;BME280;16801;53.562;10.038;2024-01-30T05:50:38;102572.88;;;5.21;100.00
29941;BME280;16801;53.562;10.038;2024-01-30T05:53:59;102580.19;;;4.94;100.00
29941;BME280;16801;53.562;10.038;2024-01-30T05:57:23;102570.81;;;4.82;100.00
29941;BME280;16801;53.562;10.038;2024-01-30T06:00:44;102568.44;;;4.98;100.00
29941;BME280;16801;53.562;10.038;2024-01-30T06:04:05;102577.50;;;4.71;100.00
29941;BME280;16801;53.562;10.038;2024-01-30T06:07:26;102575.44;;;4.54;100.00
29941;BME280;16801;53.562;10.038;2024-01-30T06:10:47;102570.34;;;4.71;100.00
29941;BME280;16801;53.562;10.038;2024-01-30T06:14:09;102576.44;;;4.52;100.00
29941;BME280;16801;53.562;10.038;2024-01-30T06:17:31;102563.66;;;4.60;100.00
29941;BME280;16801;53.562;10.038;2024-01-30T06:20:52;102558.09;;;4.66;100.00
29941;BME280;16801;53.562;10.038;2024-01-30T06:24:12;102554.09;;;4.77;100.00
29941;BME280;16801;53.562;10.038;2024-01-30T06:27:33;102558.03;;;4.67;100.00
29941;BME280;16801;53.562;10.038;2024-01-30T06:30:54;102545.63;;;4.66;100.00
29941;BME280;16801;53.562;10.038;2024-01-30T06:34:17;102548.88;;;4.74;100.00
29941;BME280;16801;53.562;10.038;2024-01-30T06:37:38;102547.88;;;4.77;100.00
29941;BME280;16801;53.562;10.038;2024-01-30T06:40:59;102540.91;;;4.73;100.00
29941;BME280;16801;53.562;10.038;2024-01-30T06:44:20;102539.97;;;4.74;100.00
29941;BME280;16801;53.562;10.038;2024-01-30T06:47:41;102539.47;;;4.64;100.00
29941;BME280;16801;53.562;10.038;2024-01-30T06:51:03;102543.75;;;4.68;100.00
29941;BME280;16801;53.562;10.038;2024-01-30T06:54:24;102542.38;;;4.81;100.00
29941;BME280;16801;53.562;10.038;2024-01-30T06:57:45;102550.06;;;4.89;100.00
29941;BME280;16801;53.562;10.038;2024-01-30T07:01:06;102545.03;;;4.81;100.00
29941;BME280;16801;53.562;10.038;2024-01-30T07:04:27;102539.69;;;5.26;100.00
29941;BME280;16801;53.562;10.038;2024-01-30T07:07:49;102542.38;;;5.03;100.00
29941;BME280;16801;53.562;10.038;2024-01-30T07:11:10;102545.19;;;5.00;100.00
29941;BME280;16801;53.562;10.038;2024-01-30T07:14:32;102538.97;;;5.00;100.00
29941;BME280;16801;53.562;10.038;2024-01-30T07:17:53;102537.59;;;4.90;100.00
29941;BME280;16801;53.562;10.038;2024-01-30T07:21:13;102540.78;;;4.76;100.00
29941;BME280;16801;53.562;10.038;2024-01-30T07:24:36;102546.13;;;4.99;100.00
29941;BME280;16801;53.562;10.038;2024-01-30T07:27:56;102536.44;;;5.18;100.00
29941;BME280;16801;53.562;10.038;2024-01-30T07:31:17;102528.84;;;5.08;100.00
29941;BME280;16801;53.562;10.038;2024-01-30T07:34:40;102529.59;;;4.90;100.00
29941;BME280;16801;53.562;10.038;2024-01-30T07:38:01;102531.47;;;4.86;100.00
29941;BME280;16801;53.562;10.038;2024-01-30T07:41:24;102535.81;;;4.90;100.00
29941;BME280;16801;53.562;10.038;2024-01-30T07:44:44;102542.81;;;4.93;100.00
29941;BME280;16801;53.562;10.038;2024-01-30T07:48:06;102543.69;;;4.93;100.00
29941;BME280;16801;53.562;10.038;2024-01-30T07:51:27;102538.25;;;5.18;100.00
29941;BME280;16801;53.562;10.038;2024-01-30T07:59:19;102534.91;;;5.13;100.00
29941;BME280;16801;53.562;10.038;2024-01-30T08:02:44;102542.25;;;5.29;100.00
29941;BME280;16801;53.562;10.038;2024-01-30T08:06:05;102538.38;;;5.15;100.00
29941;BME280;16801;53.562;10.038;2024-01-30T08:09:26;102533.53;;;5.24;100.00
29941;BME280;16801;53.562;10.038;2024-01-30T08:12:47;102533.59;;;5.23;100.00
29941;BME280;16801;53.562;10.038;2024-01-30T08:16:09;102534.44;;;5.45;100.00
29941;BME280;16801;53.562;10.038;2024-01-30T08:19:30;102525.19;;;5.53;100.00
29941;BME280;16801;53.562;10.038;2024-01-30T08:22:51;102529.25;;;5.42;100.00
29941;BME280;16801;53.562;10.038;2024-01-30T08:26:12;102540.25;;;5.56;100.00
29941;BME280;16801;53.562;10.038;2024-01-30T08:29:33;102537.56;;;5.56;100.00
29941;BME280;16801;53.562;10.038;2024-01-30T08:32:55;102534.25;;;5.71;100.00
29941;BME280;16801;53.562;10.038;2024-01-30T08:36:16;102525.34;;;5.71;100.00
29941;BME280;16801;53.562;10.038;2024-01-30T08:39:37;102516.00;;;5.81;100.00
29941;BME280;16801;53.562;10.038;2024-01-30T08:42:58;102524.09;;;5.79;100.00
29941;BME280;16801;53.562;10.038;2024-01-30T08:46:19;102519.25;;;5.89;100.00
29941;BME280;16801;53.562;10.038;2024-01-30T08:49:42;102510.00;;;6.16;100.00
29941;BME280;16801;53.562;10.038;2024-01-30T08:53:04;102505.72;;;6.12;100.00
29941;BME280;16801;53.562;10.038;2024-01-30T08:56:24;102491.50;;;6.50;100.00
29941;BME280;16801;53.562;10.038;2024-01-30T08:59:45;102479.91;;;6.87;100.00
29941;BME280;16801;53.562;10.038;2024-01-30T09:03:07;102471.41;;;7.50;100.00
29941;BME280;16801;53.562;10.038;2024-01-30T09:06:29;102470.59;;;7.48;100.00
29941;BME280;16801;53.562;10.038;2024-01-30T09:09:50;102477.38;;;8.06;100.00
29941;BME280;16801;53.562;10.038;2024-01-30T09:13:11;102460.31;;;7.39;100.00
29941;BME280;16801;53.562;10.038;2024-01-30T09:16:32;102474.22;;;7.47;100.00
29941;BME280;16801;53.562;10.038;2024-01-30T09:19:53;102481.75;;;8.09;100.00
29941;BME280;16801;53.562;10.038;2024-01-30T09:23:15;102483.22;;;8.15;100.00
29941;BME280;16801;53.562;10.038;2024-01-30T09:26:38;102486.16;;;7.59;100.00
29941;BME280;16801;53.562;10.038;2024-01-30T09:29:59;102496.94;;;7.40;100.00
29941;BME280;16801;53.562;10.038;2024-01-30T09:33:20;102501.56;;;7.19;100.00
29941;BME280;16801;53.562;10.038;2024-01-30T09:36:41;102497.53;;;7.47;100.00
29941;BME280;16801;53.562;10.038;2024-01-30T09:40:04;102504.16;;;7.57;100.00
29941;BME280;16801;53.562;10.038;2024-01-30T09:43:27;102509.09;;;7.47;100.00
29941;BME280;16801;53.562;10.038;2024-01-30T09:46:49;102507.47;;;7.62;100.00
29941;BME280;16801;53.562;10.038;2024-01-30T09:50:12;102508.72;;;7.55;100.00
29941;BME280;16801;53.562;10.038;2024-01-30T09:53:33;102500.59;;;7.56;100.00
29941;BME280;16801;53.562;10.038;2024-01-30T09:56:55;102491.06;;;7.51;100.00
29941;BME280;16801;53.562;10.038;2024-01-30T10:00:16;102493.88;;;7.99;100.00
29941;BME280;16801;53.562;10.038;2024-01-30T10:03:37;102488.91;;;8.58;100.00
29941;BME280;16801;53.562;10.038;2024-01-30T10:07:00;102474.59;;;8.58;100.00
29941;BME280;16801;53.562;10.038;2024-01-30T10:10:22;102476.91;;;9.28;100.00
29941;BME280;16801;53.562;10.038;2024-01-30T10:13:45;102463.81;;;9.22;100.00
29941;BME280;16801;53.562;10.038;2024-01-30T10:17:09;102456.06;;;9.91;100.00
29941;BME280;16801;53.562;10.038;2024-01-30T10:20:30;102458.94;;;10.02;100.00
29941;BME280;16801;53.562;10.038;2024-01-30T10:23:51;102459.91;;;9.57;100.00
29941;BME280;16801;53.562;10.038;2024-01-30T10:27:12;102466.66;;;9.34;100.00
29941;BME280;16801;53.562;10.038;2024-01-30T10:30:34;102471.41;;;9.14;100.00
29941;BME280;16801;53.562;10.038;2024-01-30T10:33:56;102459.91;;;8.96;100.00
29941;BME280;16801;53.562;10.038;2024-01-30T10:37:18;102455.53;;;9.40;100.00
29941;BME280;16801;53.562;10.038;2024-01-30T10:40:43;102455.38;;;9.28;100.00
29941;BME280;16801;53.562;10.038;2024-01-30T10:44:08;102446.25;;;9.30;100.00
29941;BME280;16801;53.562;10.038;2024-01-30T10:47:34;102456.75;;;8.72;100.00
29941;BME280;16801;53.562;10.038;2024-01-30T10:50:55;102450.63;;;8.86;100.00
29941;BME280;16801;53.562;10.038;2024-01-30T10:54:18;102449.00;;;9.29;100.00
29941;BME280;16801;53.562;10.038;2024-01-30T10:57:40;102452.88;;;9.54;100.00
29941;BME280;16801;53.562;10.038;2024-01-30T11:01:02;102444.00;;;9.23;100.00
29941;BME280;16801;53.562;10.038;2024-01-30T11:04:25;102445.50;;;9.13;100.00
29941;BME280;16801;53.562;10.038;2024-01-30T11:07:46;102447.03;;;9.17;100.00
29941;BME280;16801;53.562;10.038;2024-01-30T11:11:09;102448.50;;;9.22;100.00
29941;BME280;16801;53.562;10.038;2024-01-30T11:14:30;102452.31;;;9.18;100.00
29941;BME280;16801;53.562;10.038;2024-01-30T11:17:52;102444.19;;;8.73;100.00
29941;BME280;16801;53.562;10.038;2024-01-30T11:21:14;102447.16;;;8.84;100.00
29941;BME280;16801;53.562;10.038;2024-01-30T11:24:39;102432.13;;;8.64;100.00
29941;BME280;16801;53.562;10.038;2024-01-30T11:28:00;102443.31;;;8.57;100.00
29941;BME280;16801;53.562;10.038;2024-01-30T11:31:21;102441.50;;;8.73;100.00
29941;BME280;16801;53.562;10.038;2024-01-30T11:34:42;102446.88;;;8.73;100.00
29941;BME280;16801;53.562;10.038;2024-01-30T11:38:05;102444.53;;;8.98;100.00
29941;BME280;16801;53.562;10.038;2024-01-30T11:41:27;102439.84;;;8.70;100.00
29941;BME280;16801;53.562;10.038;2024-01-30T11:44:49;102436.22;;;8.71;100.00
29941;BME280;16801;53.562;10.038;2024-01-30T11:48:11;102423.19;;;8.64;100.00
29941;BME280;16801;53.562;10.038;2024-01-30T11:51:33;102436.56;;;8.81;100.00
29941;BME280;16801;53.562;10.038;2024-01-30T11:54:55;102433.19;;;8.77;100.00
29941;BME280;16801;53.562;10.038;2024-01-30T11:58:16;102434.13;;;8.92;100.00
29941;BME280;16801;53.562;10.038;2024-01-30T12:01:37;102440.66;;;8.88;100.00
29941;BME280;16801;53.562;10.038;2024-01-30T12:04:58;102436.22;;;8.87;100.00
29941;BME280;16801;53.562;10.038;2024-01-30T12:08:19;102418.50;;;8.83;100.00
29941;BME280;16801;53.562;10.038;2024-01-30T12:11:47;102432.38;;;8.91;100.00
29941;BME280;16801;53.562;10.038;2024-01-30T12:15:10;102434.41;;;9.03;100.00
29941;BME280;16801;53.562;10.038;2024-01-30T12:18:30;102419.03;;;8.90;100.00
29941;BME280;16801;53.562;10.038;2024-01-30T12:21:55;102423.97;;;8.97;100.00
29941;BME280;16801;53.562;10.038;2024-01-30T12:25:17;102417.44;;;9.01;100.00
29941;BME280;16801;53.562;10.038;2024-01-30T12:28:48;102412.38;;;8.97;100.00
29941;BME280;16801;53.562;10.038;2024-01-30T12:32:15;102409.69;;;8.97;100.00
29941;BME280;16801;53.562;10.038;2024-01-30T12:35:36;102406.16;;;9.10;100.00
29941;BME280;16801;53.562;10.038;2024-01-30T12:38:57;102405.59;;;9.35;100.00
29941;BME280;16801;53.562;10.038;2024-01-30T12:42:19;102410.84;;;9.52;100.00
29941;BME280;16801;53.562;10.038;2024-01-30T12:45:42;102409.28;;;9.48;100.00
29941;BME280;16801;53.562;10.038;2024-01-30T12:49:03;102406.72;;;9.46;100.00
29941;BME280;16801;53.562;10.038;2024-01-30T12:52:24;102401.13;;;9.49;100.00
29941;BME280;16801;53.562;10.038;2024-01-30T12:55:45;102407.13;;;9.54;100.00
29941;BME280;16801;53.562;10.038;2024-01-30T12:59:06;102411.19;;;9.61;100.00
29941;BME280;16801;53.562;10.038;2024-01-30T13:02:28;102401.59;;;9.72;100.00
29941;BME280;16801;53.562;10.038;2024-01-30T13:05:54;102406.69;;;9.76;100.00
29941;BME280;16801;53.562;10.038;2024-01-30T13:09:15;102402.06;;;9.78;100.00
29941;BME280;16801;53.562;10.038;2024-01-30T13:12:36;102408.50;;;9.76;100.00
29941;BME280;16801;53.562;10.038;2024-01-30T13:15:58;102420.22;;;9.75;100.00
29941;BME280;16801;53.562;10.038;2024-01-30T13:19:20;102408.50;;;9.76;100.00
29941;BME280;16801;53.562;10.038;2024-01-30T13:22:41;102408.41;;;9.77;100.00
29941;BME280;16801;53.562;10.038;2024-01-30T13:26:02;102406.69;;;9.76;100.00
29941;BME280;16801;53.562;10.038;2024-01-30T13:29:23;102413.69;;;9.79;100.00
29941;BME280;16801;53.562;10.038;2024-01-30T13:32:44;102406.50;;;9.79;100.00
29941;BME280;16801;53.562;10.038;2024-01-30T13:36:07;102410.16;;;9.78;100.00
29941;BME280;16801;53.562;10.038;2024-01-30T13:39:28;102398.31;;;9.81;100.00
29941;BME280;16801;53.562;10.038;2024-01-30T13:42:49;102401.88;;;9.81;100.00
29941;BME280;16801;53.562;10.038;2024-01-30T13:46:10;102404.66;;;9.80;100.00
29941;BME280;16801;53.562;10.038;2024-01-30T13:49:32;102398.13;;;9.84;100.00
29941;BME280;16801;53.562;10.038;2024-01-30T13:52:54;102404.38;;;9.84;100.00
29941;BME280;16801;53.562;10.038;2024-01-30T13:56:15;102403.31;;;9.87;100.00
29941;BME280;16801;53.562;10.038;2024-01-30T13:59:37;102401.31;;;9.90;100.00
29941;BME280;16801;53.562;10.038;2024-01-30T14:02:58;102395.94;;;9.90;100.00
29941;BME280;16801;53.562;10.038;2024-01-30T14:06:19;102395.44;;;9.98;100.00
29941;BME280;16801;53.562;10.038;2024-01-30T14:09:41;102394.56;;;9.97;100.00
29941;BME280;16801;53.562;10.038;2024-01-30T14:13:02;102385.53;;;9.98;100.00
29941;BME280;16801;53.562;10.038;2024-01-30T14:16:23;102380.16;;;9.98;100.00
29941;BME280;16801;53.562;10.038;2024-01-30T14:19:44;102386.31;;;10.00;100.00
29941;BME280;16801;53.562;10.038;2024-01-30T14:23:05;102377.19;;;10.03;100.00
29941;BME280;16801;53.562;10.038;2024-01-30T14:26:28;102383.22;;;10.06;100.00
29941;BME280;16801;53.562;10.038;2024-01-30T14:29:48;102368.81;;;10.07;100.00
29941;BME280;16801;53.562;10.038;2024-01-30T14:33:10;102371.41;;;10.09;100.00
29941;BME280;16801;53.562;10.038;2024-01-30T14:36:31;102372.34;;;10.08;100.00
29941;BME280;16801;53.562;10.038;2024-01-30T14:39:52;102365.13;;;10.08;100.00
29941;BME280;16801;53.562;10.038;2024-01-30T14:43:15;102374.09;;;10.09;100.00
29941;BME280;16801;53.562;10.038;2024-01-30T14:46:36;102377.59;;;10.11;100.00
29941;BME280;16801;53.562;10.038;2024-01-30T14:49:57;102372.09;;;10.12;100.00
29941;BME280;16801;53.562;10.038;2024-01-30T14:53:18;102363.06;;;10.13;100.00
29941;BME280;16801;53.562;10.038;2024-01-30T14:56:39;102373.75;;;10.15;100.00
29941;BME280;16801;53.562;10.038;2024-01-30T15:00:02;102382.78;;;10.14;100.00
29941;BME280;16801;53.562;10.038;2024-01-30T15:03:24;102379.25;;;10.13;100.00
29941;BME280;16801;53.562;10.038;2024-01-30T15:06:45;102375.28;;;10.19;100.00
29941;BME280;16801;53.562;10.038;2024-01-30T15:10:08;102380.06;;;10.14;100.00
29941;BME280;16801;53.562;10.038;2024-01-30T15:13:29;102371.72;;;10.18;100.00
29941;BME280;16801;53.562;10.038;2024-01-30T15:16:52;102369.88;;;10.19;100.00
29941;BME280;16801;53.562;10.038;2024-01-30T15:20:13;102379.41;;;10.24;100.00
29941;BME280;16801;53.562;10.038;2024-01-30T15:23:35;102384.72;;;10.26;100.00
29941;BME280;16801;53.562;10.038;2024-01-30T15:26:57;102377.59;;;10.25;100.00
29941;BME280;16801;53.562;10.038;2024-01-30T15:30:18;102387.97;;;10.31;100.00
29941;BME280;16801;53.562;10.038;2024-01-30T15:33:40;102394.13;;;10.33;100.00
29941;BME280;16801;53.562;10.038;2024-01-30T15:37:02;102388.66;;;10.34;100.00
29941;BME280;16801;53.562;10.038;2024-01-30T15:40:23;102391.53;;;10.31;100.00
29941;BME280;16801;53.562;10.038;2024-01-30T15:43:44;102394.06;;;10.34;100.00
29941;BME280;16801;53.562;10.038;2024-01-30T15:47:05;102396.66;;;10.36;100.00
29941;BME280;16801;53.562;10.038;2024-01-30T15:50:28;102393.84;;;10.37;100.00
29941;BME280;16801;53.562;10.038;2024-01-30T15:53:49;102394.22;;;10.31;100.00
29941;BME280;16801;53.562;10.038;2024-01-30T15:57:10;102398.34;;;10.37;100.00
29941;BME280;16801;53.562;10.038;2024-01-30T16:00:31;102396.53;;;10.37;100.00
29941;BME280;16801;53.562;10.038;2024-01-30T16:03:52;102393.34;;;10.31;100.00
29941;BME280;16801;53.562;10.038;2024-01-30T16:07:14;102405.69;;;10.35;100.00
29941;BME280;16801;53.562;10.038;2024-01-30T16:10:35;102396.66;;;10.36;100.00
29941;BME280;16801;53.562;10.038;2024-01-30T16:13:56;102397.50;;;10.22;100.00
29941;BME280;16801;53.562;10.038;2024-01-30T16:17:17;102410.13;;;10.22;100.00
29941;BME280;16801;53.562;10.038;2024-01-30T16:20:37;102404.75;;;10.22;100.00
29941;BME280;16801;53.562;10.038;2024-01-30T16:24:02;102410.41;;;10.17;100.00
29941;BME280;16801;53.562;10.038;2024-01-30T16:27:24;102420.91;;;10.22;100.00
29941;BME280;16801;53.562;10.038;2024-01-30T16:30:45;102422.53;;;10.24;100.00
29941;BME280;16801;53.562;10.038;2024-01-30T16:34:06;102422.34;;;10.27;100.00
29941;BME280;16801;53.562;10.038;2024-01-30T16:37:27;102423.28;;;10.26;100.00
29941;BME280;16801;53.562;10.038;2024-01-30T16:40:50;102430.25;;;10.30;100.00
29941;BME280;16801;53.562;10.038;2024-01-30T16:44:11;102425.53;;;10.34;100.00
29941;BME280;16801;53.562;10.038;2024-01-30T16:47:32;102420.59;;;10.26;100.00
29941;BME280;16801;53.562;10.038;2024-01-30T16:50:53;102417.91;;;10.26;100.00
29941;BME280;16801;53.562;10.038;2024-01-30T16:54:14;102419.66;;;10.27;100.00
29941;BME280;16801;53.562;10.038;2024-01-30T16:57:36;102425.72;;;10.31;100.00
29941;BME280;16801;53.562;10.038;2024-01-30T17:00:57;102423.13;;;10.29;100.00
29941;BME280;16801;53.562;10.038;2024-01-30T17:04:18;102429.09;;;10.34;100.00
29941;BME280;16801;53.562;10.038;2024-01-30T17:07:41;102428.00;;;10.37;100.00
29941;BME280;16801;53.562;10.038;2024-01-30T17:11:02;102436.88;;;10.39;100.00
29941;BME280;16801;53.562;10.038;2024-01-30T17:14:24;102442.84;;;10.44;100.00
29941;BME280;16801;53.562;10.038;2024-01-30T17:17:45;102432.94;;;10.44;100.00
29941;BME280;16801;53.562;10.038;2024-01-30T17:21:06;102444.00;;;10.40;100.00